Terminal Aerodrome Forecast
Issued by NWS

Home | Current Version | Previous Version | Text Only | Print | Product List | Glossary On
Versions: 1 2 3 4 5 6 7 8 9 10 11 12 13 14
000
FTUS46 KPDT 181100
TAFYKM
TAF
KYKM 181120Z 1812/1912 26008KT P6SM SKC
     FM181600 31012G18KT P6SM FEW200
     FM182200 30009KT P6SM SCT150
     FM190400 27007KT P6SM SCT120=

USA.gov is the U.S. government's official web portal to all federal, state and local government web resources and services.